createdAt,value
2022-12-19T00:00:17.560Z,36.03
2022-12-19T00:02:44.246Z,38.53
2022-12-19T00:05:13.443Z,38.37
2022-12-19T00:07:40.057Z,29.70
2022-12-19T00:10:07.594Z,30.27
2022-12-19T00:12:38.207Z,36.80
2022-12-19T00:15:05.291Z,36.73
2022-12-19T00:17:33.146Z,31.87
2022-12-19T00:20:01.938Z,42.83
2022-12-19T00:22:33.002Z,40.40
2022-12-19T00:24:59.687Z,35.77
2022-12-19T00:27:26.131Z,29.47
2022-12-19T00:29:54.614Z,32.57
2022-12-19T00:32:22.698Z,37.33
2022-12-19T00:34:52.451Z,34.17
2022-12-19T00:37:18.930Z,28.83
2022-12-19T00:39:45.585Z,33.93
2022-12-19T00:42:12.232Z,32.87
2022-12-19T00:44:38.746Z,31.53
2022-12-19T00:47:06.397Z,30.87
2022-12-19T00:49:32.874Z,35.40
2022-12-19T00:52:00.564Z,35.70
2022-12-19T00:54:27.271Z,36.90
2022-12-19T00:56:53.914Z,36.30
2022-12-19T00:59:26.344Z,32.23
2022-12-19T01:01:53.627Z,35.60
2022-12-19T01:04:28.876Z,39.73
2022-12-19T01:06:56.674Z,29.13
2022-12-19T01:09:29.016Z,31.03
2022-12-19T01:12:14.215Z,25.67
2022-12-19T01:14:40.976Z,36.23
2022-12-19T01:17:07.926Z,38.23
2022-12-19T01:19:40.391Z,21.17
2022-12-19T01:22:10.618Z,7.87
2022-12-19T01:24:37.759Z,5.70
2022-12-19T01:27:04.281Z,4.00
2022-12-19T01:29:32.383Z,2.40
2022-12-19T01:32:00.301Z,7.33
2022-12-19T01:34:28.168Z,3.30
2022-12-19T01:36:55.680Z,3.40
2022-12-19T01:39:22.620Z,5.30
2022-12-19T01:41:52.170Z,1.90
2022-12-19T01:44:18.730Z,2.70
2022-12-19T01:46:49.257Z,4.00
2022-12-19T01:49:27.548Z,5.23
2022-12-19T01:51:56.371Z,2.50
2022-12-19T01:54:35.209Z,2.93
2022-12-19T01:57:03.252Z,3.73
2022-12-19T01:59:33.387Z,2.60
2022-12-19T02:02:20.194Z,2.80
2022-12-19T02:04:49.081Z,8.33
2022-12-19T02:07:16.685Z,8.20
2022-12-19T02:09:56.608Z,6.57
2022-12-19T02:12:27.753Z,3.70
2022-12-19T02:14:57.424Z,11.00
2022-12-19T02:17:34.463Z,6.63
2022-12-19T02:20:19.784Z,7.27
2022-12-19T02:23:07.881Z,6.70
2022-12-19T02:25:41.829Z,6.17
2022-12-19T02:28:33.355Z,10.40
2022-12-19T02:31:24.920Z,4.90
2022-12-19T02:34:00.265Z,4.73
2022-12-19T02:36:38.614Z,4.87
2022-12-19T02:39:15.427Z,8.43
2022-12-19T02:41:46.069Z,20.97
2022-12-19T02:44:34.172Z,10.23
2022-12-19T02:47:03.209Z,3.57
2022-12-19T02:49:31.433Z,7.60
2022-12-19T02:51:58.355Z,2.87
2022-12-19T02:54:25.955Z,2.00
2022-12-19T02:57:05.560Z,3.40
2022-12-19T02:59:44.085Z,2.90
2022-12-19T03:02:27.746Z,2.70
2022-12-19T03:04:59.717Z,6.10
2022-12-19T03:07:41.986Z,6.50
2022-12-19T03:10:17.260Z,6.00
2022-12-19T03:12:51.734Z,6.47
2022-12-19T03:15:19.911Z,19.60
2022-12-19T03:17:47.222Z,27.70
2022-12-19T03:20:39.197Z,39.30
2022-12-19T03:23:08.556Z,29.03
2022-12-19T03:25:35.880Z,37.23
2022-12-19T03:28:07.013Z,36.63
2022-12-19T03:30:34.305Z,32.80
2022-12-19T03:33:01.790Z,34.47
2022-12-19T03:35:30.638Z,29.80
2022-12-19T03:37:58.477Z,34.03
2022-12-19T03:40:26.543Z,38.07
2022-12-19T03:43:09.138Z,42.70
2022-12-19T03:45:57.935Z,34.87
2022-12-19T03:48:30.462Z,31.13
2022-12-19T03:51:09.630Z,32.63
2022-12-19T03:53:51.731Z,35.20
2022-12-19T03:56:31.580Z,21.90
2022-12-19T03:59:03.532Z,11.93
2022-12-19T04:01:32.415Z,12.97
2022-12-19T04:03:59.169Z,9.37
2022-12-19T04:06:28.644Z,8.60
2022-12-19T04:08:56.597Z,4.70
2022-12-19T04:11:26.722Z,6.90
2022-12-19T04:14:02.324Z,16.20
2022-12-19T04:17:03.071Z,6.03
2022-12-19T04:19:54.388Z,6.60
2022-12-19T04:22:30.006Z,5.80
2022-12-19T04:24:57.453Z,2.50
2022-12-19T04:27:24.224Z,5.63
2022-12-19T04:29:54.615Z,9.17
2022-12-19T04:32:21.622Z,4.67
2022-12-19T04:34:49.283Z,5.97
2022-12-19T04:37:16.024Z,8.93
2022-12-19T04:39:42.644Z,5.50
2022-12-19T04:42:12.945Z,9.07
2022-12-19T04:44:39.419Z,13.30
2022-12-19T04:47:06.072Z,24.33
2022-12-19T04:49:32.626Z,36.40
2022-12-19T04:51:59.160Z,29.50
2022-12-19T04:54:25.716Z,33.93
2022-12-19T04:56:53.211Z,34.53
2022-12-19T04:59:19.872Z,39.13
2022-12-19T05:01:46.477Z,40.67
2022-12-19T05:04:13.210Z,45.43
2022-12-19T05:06:39.803Z,36.03
2022-12-19T05:09:06.537Z,33.03
2022-12-19T05:11:32.979Z,38.57
2022-12-19T05:13:59.999Z,30.17
2022-12-19T05:16:26.717Z,33.57
2022-12-19T05:18:54.771Z,37.40
2022-12-19T05:21:22.686Z,47.53
2022-12-19T05:23:49.910Z,33.97
2022-12-19T05:26:18.698Z,43.83
2022-12-19T05:28:45.311Z,34.20
2022-12-19T05:31:15.046Z,34.77
2022-12-19T05:33:42.909Z,42.80
2022-12-19T05:36:10.652Z,30.50
2022-12-19T05:38:37.475Z,49.73
2022-12-19T05:41:14.904Z,40.77
2022-12-19T05:43:42.441Z,41.60
2022-12-19T05:46:10.923Z,43.90
2022-12-19T05:48:38.096Z,40.07
2022-12-19T05:51:06.126Z,45.20
2022-12-19T05:53:37.475Z,33.63
2022-12-19T05:56:16.030Z,34.07
2022-12-19T05:58:43.020Z,36.93
2022-12-19T06:01:12.627Z,40.67
2022-12-19T06:03:39.339Z,43.60
2022-12-19T06:06:12.517Z,44.90
2022-12-19T06:08:41.611Z,51.57
2022-12-19T06:11:09.119Z,47.47
2022-12-19T06:13:37.478Z,53.37
2022-12-19T06:16:06.957Z,40.33
2022-12-19T06:18:36.687Z,51.63
2022-12-19T06:21:08.952Z,53.80
2022-12-19T06:23:36.270Z,40.13
2022-12-19T06:26:06.059Z,41.03
2022-12-19T06:28:33.208Z,45.90
2022-12-19T06:31:01.852Z,43.63
2022-12-19T06:33:29.489Z,45.73
2022-12-19T06:36:00.683Z,46.73
2022-12-19T06:38:28.370Z,44.93
2022-12-19T06:41:14.089Z,41.13
2022-12-19T06:43:40.829Z,44.07
2022-12-19T06:46:08.476Z,40.70
2022-12-19T06:48:35.070Z,43.80
2022-12-19T06:51:02.053Z,46.40
2022-12-19T06:53:28.656Z,45.63
2022-12-19T06:55:58.375Z,44.30
2022-12-19T06:58:25.302Z,44.93
2022-12-19T07:00:52.188Z,47.77
2022-12-19T07:03:25.506Z,46.80
2022-12-19T07:05:52.881Z,54.63
2022-12-19T07:08:19.515Z,39.10
2022-12-19T07:10:46.121Z,47.77
2022-12-19T07:13:12.853Z,46.57
2022-12-19T07:15:40.525Z,44.57
2022-12-19T07:18:10.028Z,44.90
2022-12-19T07:20:40.596Z,46.03
2022-12-19T07:23:14.416Z,40.93
2022-12-19T07:25:40.972Z,38.17
2022-12-19T07:28:07.860Z,36.27
2022-12-19T07:30:36.666Z,42.43
2022-12-19T07:33:05.735Z,43.77
2022-12-19T07:35:32.409Z,40.23
2022-12-19T07:38:04.524Z,35.20
2022-12-19T07:40:33.755Z,44.13
2022-12-19T07:43:04.087Z,42.20
2022-12-19T07:45:31.008Z,38.23
2022-12-19T07:48:01.838Z,31.80
2022-12-19T07:50:29.307Z,41.53
2022-12-19T07:52:55.904Z,31.63
2022-12-19T07:55:22.579Z,37.80
2022-12-19T07:57:49.170Z,34.90
2022-12-19T08:00:16.086Z,37.13
2022-12-19T08:02:43.267Z,20.20
2022-12-19T08:05:15.614Z,16.33
2022-12-19T08:07:43.190Z,22.57
2022-12-19T08:10:14.055Z,18.10
2022-12-19T08:12:41.270Z,12.50
2022-12-19T08:15:08.535Z,9.10
2022-12-19T08:17:35.821Z,11.50
2022-12-19T08:20:02.392Z,30.77
2022-12-19T08:22:30.616Z,13.30
2022-12-19T08:24:57.754Z,9.90
2022-12-19T08:27:24.696Z,20.60
2022-12-19T08:29:51.520Z,16.30
2022-12-19T08:32:21.243Z,7.83
2022-12-19T08:34:48.513Z,31.23
2022-12-19T08:37:15.925Z,17.70
2022-12-19T08:39:42.913Z,13.43
2022-12-19T08:42:11.120Z,19.67
2022-12-19T08:44:37.874Z,19.43
2022-12-19T08:47:05.093Z,18.03
2022-12-19T08:49:33.919Z,33.20
2022-12-19T08:52:00.527Z,28.97
2022-12-19T08:54:30.658Z,24.23
2022-12-19T08:56:57.437Z,27.40
2022-12-19T08:59:31.708Z,24.90
2022-12-19T09:02:00.965Z,33.07
2022-12-19T09:06:02.216Z,22.47
2022-12-19T09:07:18.118Z,20.57
2022-12-19T09:09:46.765Z,17.93
2022-12-19T09:12:19.031Z,25.73
2022-12-19T09:14:45.758Z,21.53
2022-12-19T09:17:21.614Z,26.10
2022-12-19T09:19:48.533Z,21.17
2022-12-19T09:22:16.863Z,21.87
2022-12-19T09:24:44.937Z,18.23
2022-12-19T09:27:11.493Z,17.97
2022-12-19T09:29:38.658Z,23.73
2022-12-19T09:32:05.971Z,19.20
2022-12-19T09:34:37.809Z,20.30
2022-12-19T09:37:16.252Z,29.80
2022-12-19T09:39:46.326Z,25.67
2022-12-19T09:42:41.120Z,28.47
2022-12-19T09:45:31.580Z,31.60
2022-12-19T09:47:59.499Z,23.90
2022-12-19T09:50:53.597Z,18.87
2022-12-19T09:53:53.810Z,15.30
2022-12-19T09:56:34.031Z,17.27
2022-12-19T09:59:41.103Z,12.63
2022-12-19T10:02:40.120Z,6.47
2022-12-19T10:05:36.559Z,8.80
2022-12-19T10:08:10.590Z,10.97
2022-12-19T10:12:38.461Z,12.13
2022-12-19T10:14:19.269Z,6.20
2022-12-19T10:17:23.550Z,17.43
2022-12-19T10:20:20.456Z,10.83
2022-12-19T10:23:16.634Z,14.60
2022-12-19T10:26:19.286Z,12.20
2022-12-19T10:28:52.038Z,6.13
2022-12-19T10:31:26.946Z,11.40
2022-12-19T10:34:10.594Z,16.07
2022-12-19T10:37:20.976Z,14.20
2022-12-19T10:39:51.288Z,12.73
2022-12-19T10:42:28.781Z,11.37
2022-12-19T10:44:58.496Z,12.83
2022-12-19T10:47:27.971Z,14.10
2022-12-19T10:49:55.794Z,16.70
2022-12-19T10:53:05.071Z,13.27
2022-12-19T10:55:47.739Z,18.83
2022-12-19T10:58:26.563Z,18.77
2022-12-19T11:01:17.767Z,9.33
2022-12-19T11:03:51.131Z,14.53
2022-12-19T11:06:50.464Z,9.90
2022-12-19T11:09:19.134Z,11.70
2022-12-19T11:13:19.232Z,10.77
2022-12-19T11:18:51.955Z,11.13
2022-12-19T11:27:03.827Z,18.27
2022-12-19T11:29:35.182Z,14.80
2022-12-19T11:29:54.649Z,12.00
2022-12-19T11:30:46.075Z,10.47
2022-12-19T11:30:59.585Z,7.17
2022-12-19T11:34:37.170Z,13.27
2022-12-19T11:37:21.451Z,12.73
2022-12-19T11:39:55.439Z,11.07
2022-12-19T11:43:25.632Z,13.37
2022-12-19T11:45:41.374Z,52.13
2022-12-19T11:48:17.224Z,19.17
2022-12-19T11:51:23.597Z,18.73
2022-12-19T11:54:00.417Z,24.23
2022-12-19T11:56:28.098Z,19.60
2022-12-19T11:59:01.308Z,12.43
2022-12-19T12:01:40.201Z,15.83
2022-12-19T12:04:19.947Z,22.30
2022-12-19T12:06:51.631Z,12.00
2022-12-19T12:12:42.656Z,15.23
2022-12-19T12:19:23.985Z,15.10
2022-12-19T12:29:18.403Z,11.07
2022-12-19T12:31:11.641Z,11.33
2022-12-19T12:31:14.156Z,6.53
2022-12-19T12:31:43.542Z,9.53
2022-12-19T12:31:43.765Z,8.63
2022-12-19T12:32:00.574Z,9.37
2022-12-19T12:35:28.858Z,8.17
2022-12-19T12:40:27.527Z,8.37
2022-12-19T12:43:22.300Z,6.93
2022-12-19T12:45:49.125Z,10.83
2022-12-19T12:48:35.669Z,9.27
2022-12-19T12:51:02.329Z,5.93
2022-12-19T12:53:34.625Z,7.60
2022-12-19T12:56:02.272Z,16.33
2022-12-19T12:58:53.730Z,14.43
2022-12-19T13:01:31.315Z,13.57
2022-12-19T13:04:21.485Z,9.63
2022-12-19T13:06:54.119Z,9.93
2022-12-19T13:09:26.459Z,6.70
2022-12-19T13:12:35.827Z,10.30
2022-12-19T13:15:27.804Z,11.03
2022-12-19T13:17:56.339Z,10.77
2022-12-19T13:20:31.831Z,9.00
2022-12-19T13:23:01.451Z,9.63
2022-12-19T13:25:34.032Z,5.40
2022-12-19T13:28:04.909Z,12.00
2022-12-19T13:31:02.210Z,9.00
2022-12-19T13:33:22.832Z,16.37
2022-12-19T13:39:30.756Z,6.90
2022-12-19T13:39:59.205Z,14.17
2022-12-19T13:42:00.146Z,13.13
2022-12-19T13:44:27.016Z,9.80
2022-12-19T13:46:56.729Z,9.47
2022-12-19T13:49:34.419Z,11.73
2022-12-19T13:52:02.714Z,11.93
2022-12-19T13:54:35.030Z,7.47
2022-12-19T13:57:08.906Z,28.00
2022-12-19T13:59:38.417Z,33.70
2022-12-19T14:02:17.230Z,10.87
2022-12-19T14:04:44.740Z,10.63
2022-12-19T14:07:36.070Z,10.93
2022-12-19T14:11:36.578Z,16.50
2022-12-19T14:13:44.452Z,11.03
2022-12-19T14:15:58.215Z,9.03
2022-12-19T14:18:44.475Z,13.37
2022-12-19T14:22:04.748Z,14.10
2022-12-19T14:24:11.818Z,12.57
2022-12-19T14:28:24.463Z,16.70
2022-12-19T14:30:26.804Z,9.47
2022-12-19T14:33:38.969Z,9.13
2022-12-19T14:36:09.057Z,12.43
2022-12-19T14:39:25.838Z,10.50
2022-12-19T14:41:08.316Z,8.13
2022-12-19T14:43:58.988Z,19.57
2022-12-19T14:52:08.552Z,6.93
2022-12-19T14:54:13.497Z,20.17
2022-12-19T14:54:40.849Z,34.20
2022-12-19T14:56:16.856Z,50.30
2022-12-19T14:58:53.651Z,12.47
2022-12-19T15:01:11.827Z,19.53
2022-12-19T15:03:45.087Z,8.17
2022-12-19T15:07:09.185Z,6.00
2022-12-19T15:11:03.346Z,15.37
2022-12-19T15:13:30.116Z,23.53
2022-12-19T15:15:27.876Z,30.20
2022-12-19T15:17:56.673Z,13.87
2022-12-19T15:20:23.328Z,12.80
2022-12-19T15:22:50.566Z,21.27
2022-12-19T15:25:44.067Z,17.40
2022-12-19T15:28:16.282Z,22.57
2022-12-19T15:30:52.977Z,23.60
2022-12-19T15:33:19.824Z,27.07
2022-12-19T15:35:46.545Z,25.83
2022-12-19T15:38:13.549Z,35.30
2022-12-19T15:40:45.661Z,20.50
2022-12-19T15:44:01.846Z,22.57
2022-12-19T15:46:12.597Z,16.93
2022-12-19T15:48:40.846Z,20.13
2022-12-19T15:51:13.912Z,18.63
2022-12-19T15:53:41.580Z,26.13
2022-12-19T15:56:29.741Z,23.20
2022-12-19T15:58:58.171Z,18.00
2022-12-19T16:01:25.568Z,30.67
2022-12-19T16:03:52.660Z,19.80
2022-12-19T16:06:20.592Z,33.83
2022-12-19T16:08:47.505Z,27.10
2022-12-19T16:11:25.323Z,18.60
2022-12-19T16:13:55.380Z,31.70
2022-12-19T16:16:23.350Z,22.20
2022-12-19T16:18:50.856Z,25.43
2022-12-19T16:21:24.793Z,23.13
2022-12-19T16:23:57.729Z,35.93
2022-12-19T16:26:35.418Z,43.17
2022-12-19T16:29:03.356Z,27.50
2022-12-19T16:31:30.294Z,25.10
2022-12-19T16:33:57.086Z,24.33
2022-12-19T16:36:24.622Z,25.00
2022-12-19T16:38:51.368Z,27.93
2022-12-19T16:41:21.536Z,28.53
2022-12-19T16:43:49.038Z,23.23
2022-12-19T16:46:18.569Z,22.80
2022-12-19T16:48:45.680Z,54.07
2022-12-19T16:51:22.883Z,33.10
2022-12-19T16:53:52.209Z,31.93
2022-12-19T16:56:26.379Z,29.43
2022-12-19T16:58:54.196Z,31.77
2022-12-19T17:01:21.980Z,29.20
2022-12-19T17:03:52.262Z,29.50
2022-12-19T17:06:20.400Z,36.93
2022-12-19T17:08:48.956Z,33.00
2022-12-19T17:11:24.540Z,33.70
2022-12-19T17:14:05.640Z,26.33
2022-12-19T17:16:32.722Z,22.23
2022-12-19T17:18:59.406Z,17.70
2022-12-19T17:21:27.356Z,22.30
2022-12-19T17:23:53.915Z,21.80
2022-12-19T17:26:21.643Z,20.10
2022-12-19T17:28:49.721Z,20.23
2022-12-19T17:31:28.519Z,23.23
2022-12-19T17:33:56.437Z,22.40
2022-12-19T17:36:32.655Z,16.10
2022-12-19T17:39:03.757Z,15.73
2022-12-19T17:41:31.703Z,17.80
2022-12-19T17:43:59.816Z,18.77
2022-12-19T17:46:26.977Z,38.20
2022-12-19T17:48:54.031Z,25.73
2022-12-19T17:51:24.243Z,20.40
2022-12-19T17:53:51.847Z,17.33
2022-12-19T17:56:25.886Z,18.60
2022-12-19T17:58:53.007Z,25.90
2022-12-19T18:01:23.370Z,22.53
2022-12-19T18:03:51.708Z,29.43
2022-12-19T18:06:18.324Z,23.10
2022-12-19T18:08:45.256Z,18.73
2022-12-19T18:11:25.535Z,20.97
2022-12-19T18:13:53.177Z,25.37
2022-12-19T18:16:25.518Z,20.77
2022-12-19T18:18:53.070Z,23.43
2022-12-19T18:21:25.847Z,17.77
2022-12-19T18:23:53.489Z,26.83
2022-12-19T18:26:20.444Z,16.23
2022-12-19T18:28:47.300Z,16.63
2022-12-19T18:31:17.541Z,40.27
2022-12-19T18:33:47.334Z,20.33
2022-12-19T18:36:26.563Z,24.27
2022-12-19T18:38:54.337Z,71.67
2022-12-19T18:41:23.479Z,68.83
2022-12-19T18:43:51.604Z,34.23
2022-12-19T18:46:28.554Z,20.40
2022-12-19T18:48:55.888Z,21.77
2022-12-19T18:51:24.207Z,29.33
2022-12-19T18:53:58.079Z,26.50
2022-12-19T18:56:25.578Z,28.90
2022-12-19T18:58:53.823Z,25.50
2022-12-19T19:01:24.348Z,27.80
2022-12-19T19:03:56.020Z,32.07
2022-12-19T19:06:27.350Z,44.67
2022-12-19T19:08:57.111Z,34.67
2022-12-19T19:11:25.899Z,25.60
2022-12-19T19:13:55.763Z,24.50
2022-12-19T19:16:26.884Z,22.40
2022-12-19T19:18:57.261Z,18.83
2022-12-19T19:21:28.831Z,17.47
2022-12-19T19:24:24.660Z,20.30
2022-12-19T19:26:51.467Z,22.40
2022-12-19T19:29:19.723Z,31.70
2022-12-19T19:31:51.087Z,27.50
2022-12-19T19:34:29.913Z,30.37
2022-12-19T19:36:59.805Z,38.30
2022-12-19T19:39:28.194Z,20.53
2022-12-19T19:41:56.539Z,17.73
2022-12-19T19:44:23.235Z,19.10
2022-12-19T19:46:51.713Z,16.80
2022-12-19T19:49:19.878Z,14.40
2022-12-19T19:51:48.436Z,17.93
2022-12-19T19:54:19.873Z,17.30
2022-12-19T19:56:47.252Z,20.03
2022-12-19T19:59:14.040Z,26.10
2022-12-19T20:01:40.888Z,32.13
2022-12-19T20:04:09.050Z,46.83
2022-12-19T20:06:39.971Z,32.37
2022-12-19T20:09:09.679Z,36.33
2022-12-19T20:11:38.690Z,39.77
2022-12-19T20:14:05.652Z,56.33
2022-12-19T20:16:35.127Z,43.87
2022-12-19T20:19:03.742Z,38.33
2022-12-19T20:21:34.251Z,43.47
2022-12-19T20:24:06.934Z,43.03
2022-12-19T20:26:35.633Z,43.83
2022-12-19T20:29:03.011Z,52.07
2022-12-19T20:31:31.335Z,46.83
2022-12-19T20:33:59.313Z,42.07
2022-12-19T20:36:26.091Z,45.43
2022-12-19T20:38:53.189Z,57.33
2022-12-19T20:41:20.926Z,56.80
2022-12-19T20:43:48.567Z,46.60
2022-12-19T20:46:18.900Z,41.27
2022-12-19T20:48:47.287Z,47.80
2022-12-19T20:51:15.513Z,62.17
2022-12-19T20:53:43.515Z,50.33
2022-12-19T20:56:14.378Z,42.37
2022-12-19T20:58:42.450Z,41.97
2022-12-19T21:01:18.868Z,51.53
2022-12-19T21:03:48.613Z,50.10
2022-12-19T21:06:17.305Z,50.93
2022-12-19T21:08:45.439Z,44.33
2022-12-19T21:11:12.829Z,49.40
2022-12-19T21:13:42.409Z,48.93
2022-12-19T21:16:14.690Z,38.60
2022-12-19T21:18:42.729Z,42.70
2022-12-19T21:21:14.924Z,47.43
2022-12-19T21:23:43.696Z,50.73
2022-12-19T21:26:11.082Z,53.37
2022-12-19T21:28:39.536Z,44.40
2022-12-19T21:31:32.687Z,57.50
2022-12-19T21:34:01.747Z,45.30
2022-12-19T21:36:31.474Z,42.03
2022-12-19T21:39:01.350Z,41.97
2022-12-19T21:41:28.822Z,48.60
2022-12-19T21:43:58.558Z,47.50
2022-12-19T21:46:28.793Z,48.30
2022-12-19T21:48:57.893Z,48.37
2022-12-19T21:51:27.272Z,47.63
2022-12-19T21:53:57.471Z,47.43
2022-12-19T21:56:32.782Z,48.70
2022-12-19T21:59:02.487Z,46.93
2022-12-19T22:01:38.479Z,46.20
2022-12-19T22:04:07.621Z,41.70
2022-12-19T22:06:37.312Z,43.17
2022-12-19T22:09:06.765Z,50.70
2022-12-19T22:11:34.993Z,50.00
2022-12-19T22:14:05.507Z,52.67
2022-12-19T22:16:33.238Z,56.27
2022-12-19T22:19:00.064Z,49.83
2022-12-19T22:21:27.161Z,46.67
2022-12-19T22:24:03.979Z,47.90
2022-12-19T22:26:32.325Z,49.43
2022-12-19T22:28:59.496Z,40.63
2022-12-19T22:31:33.856Z,37.40
2022-12-19T22:34:05.636Z,34.60
2022-12-19T22:36:33.917Z,37.33
2022-12-19T22:39:02.517Z,27.60
2022-12-19T22:41:29.727Z,20.67
2022-12-19T22:43:58.646Z,15.97
2022-12-19T22:46:31.296Z,17.13
2022-12-19T22:48:59.924Z,19.33
2022-12-19T22:51:27.794Z,10.73
2022-12-19T22:53:54.555Z,16.83
2022-12-19T22:56:25.191Z,17.60
2022-12-19T22:58:53.943Z,17.93
2022-12-19T23:01:32.995Z,17.97
2022-12-19T23:04:04.520Z,15.43
2022-12-19T23:06:34.192Z,21.73
2022-12-19T23:09:02.521Z,22.73
2022-12-19T23:11:33.724Z,17.80
2022-12-19T23:14:07.384Z,19.83
2022-12-19T23:16:35.130Z,19.73
2022-12-19T23:19:03.043Z,18.93
2022-12-19T23:21:30.698Z,20.77
2022-12-19T23:23:59.304Z,11.43
2022-12-19T23:26:34.865Z,13.63
2022-12-19T23:29:10.194Z,15.67
2022-12-19T23:31:40.821Z,17.10
2022-12-19T23:34:07.891Z,17.83
2022-12-19T23:42:04.402Z,18.43
2022-12-19T23:44:31.440Z,11.20
2022-12-19T23:47:03.006Z,12.83
2022-12-19T23:49:30.864Z,22.90
2022-12-19T23:51:57.327Z,17.23
2022-12-19T23:54:25.529Z,14.10
2022-12-19T23:56:53.392Z,13.23
2022-12-19T23:59:19.993Z,12.03
